If you wish to contribute or participate in the discussions about articles you are invited to join SKYbrary as a registered user

 Actions

Foz do Iguaçu International Airport

From SKYbrary Wiki

SBFI
Airport
ICAO: SBFI – IATA: IGU
Summary
Name Foz do Iguaçu International Airport
Region South America and Caribbean
Territory Brazil BR.gif
Location Foz do Iguaçu, Parana
Serving Foz do Iguaçu
Elevation 239.573 m
786 ft239.573 m
Coordinates 25° 36' 1.01" S, 54° 29' 6.00" W
Runways
Designator Length Width Surface ROPS
14/32 2195 m7,201.444 ft
45 m147.638 ft
ASP yes/yes


METAR
Observation SBFI 151700Z 03015KT 9999 SCT030 FEW035TCU BKN090 31/23 Q1010
Station Foz Do Iguacu Aeroporto
Date/Time 15 December 2019 17:00:00
Wind direction 30°
Wind speed 15 kts
Lowest cloud amount scattered clouds
Temperature 31°C
Dew point 23°C
Humidity 62%
QNH 1010 hPa
Weather condition n/a

Foz do Iguaçu/Cataratas International Airport, is the airport serving Foz do Iguaçu, Brazil.

Climatology

Humid subtropical climate (Köppen climate classification Cfa)

Maps

Terrain

Loading map...

Airport Layout

Loading map...


Accidents & Serious Incidents at or in vicinity of SBFI

None on SKYbrary